Latest Weather Observations for Marree Airport

IDS60801

Issued at 8:52 pm CDT Friday 13 December 2019 (issued every 10 minutes, with the page automatically refreshed every 10 minutes)

About weather observations | Map of weather stations | Latest weather observations for SA | Other Formats
Station Details ID: 017126 Name: MARREE AERO Lat: -29.66 Lon: 138.07 Height: 50.0 m
Data from the previous 72 hours. | See also: Recent months at Marree Airport
Date/Time
CDT
Temp
°C
App
Temp
°C
Dew
Point
°C
Rel
Hum
%
Delta-T
°C
Wind Press
QNH
hPa
Press
MSL
hPa
Rain since
9am
mm
Dir  Spd
km/h
Gust
km/h
Spd
kts
Gust
kts
13/08:30pm 28.2 21.3 -2.8 13 13.9 S 24 32 13 17 1015.3 1015.0 0.0
13/08:00pm 29.3 21.2 -3.0 12 14.6 S 30 35 16 19 1015.1 1014.8 0.0
13/07:30pm 30.1 21.4 -4.8 10 15.4 S 32 39 17 21 1014.9 1014.6 0.0
13/07:00pm 30.8 21.8 -5.7 9 15.9 SSW 33 44 18 24 1014.7 1014.4 0.0
13/06:30pm 31.3 22.4 -6.8 8 16.4 SSW 32 39 17 21 1014.7 1014.4 0.0
13/06:00pm 31.9 23.7 -8.1 7 16.9 S 28 44 15 24 1014.7 1014.4 0.0
13/05:30pm 32.6 25.0 -5.9 8 17.0 S 26 37 14 20 1014.8 1014.5 0.0
13/05:00pm 31.7 23.5 -8.3 7 16.8 SSW 28 41 15 22 1015.0 1014.7 0.0
13/04:30pm 31.9 24.1 -8.1 7 16.9 SW 26 43 14 23 1015.4 1015.1 0.0
13/04:00pm 32.5 26.0 -6.0 8 16.9 SSW 20 37 11 20 1015.5 1015.2 0.0
13/03:30pm 32.2 25.5 -4.6 9 16.5 S 22 39 12 21 1015.9 1015.6 0.0
13/03:00pm 31.8 25.9 -1.1 12 15.6 SSW 20 33 11 18 1016.4 1016.1 0.0
13/02:30pm 31.5 26.3 -0.2 13 15.3 S 17 30 9 16 1016.6 1016.3 0.0
13/02:00pm 31.3 25.8 1.6 15 14.7 SSW 20 35 11 19 1016.9 1016.6 0.0
13/01:30pm 30.1 25.4 0.6 15 14.2 SSW 15 32 8 17 1017.5 1017.2 0.0
13/01:00pm 30.1 25.3 2.4 17 13.8 SW 17 28 9 15 1017.9 1017.6 0.0
13/12:30pm 29.0 24.9 2.3 18 13.2 SSW 13 26 7 14 1018.2 1017.9 0.0
13/12:00pm 28.3 24.0 3.2 20 12.5 SSW 15 24 8 13 1018.6 1018.3 0.0
13/11:30am 27.4 22.8 3.8 22 11.8 SSE 17 26 9 14 1018.8 1018.5 0.0
13/11:00am 27.0 22.7 5.3 25 11.2 SSE 17 24 9 13 1019.0 1018.7 0.0
13/10:30am 26.4 21.8 5.4 26 10.8 SSE 19 28 10 15 1019.3 1019.0 0.0
13/10:00am 25.6 20.5 5.8 28 10.2 SSE 22 30 12 16 1019.5 1019.2 0.0
13/09:30am 24.0 18.0 5.4 30 9.4 SSE 26 32 14 17 1019.6 1019.3 0.0
13/09:00am 23.4 16.2 5.8 32 8.9 SSE 33 41 18 22 1019.7 1019.4 0.0
13/08:30am 22.3 15.2 5.7 34 8.3 S 32 39 17 21 1019.4 1019.1 0.0
13/08:00am 21.0 13.8 5.0 35 7.9 SSE 32 37 17 20 1019.2 1018.9 0.0
13/07:30am 20.0 14.2 4.5 36 7.5 S 24 30 13 16 1018.9 1018.6 0.0
13/07:00am 19.1 13.2 4.1 37 7.2 S 24 30 13 16 1018.6 1018.3 0.0
13/06:30am 18.3 12.9 4.5 40 6.6 S 22 26 12 14 1018.3 1018.0 0.0
13/06:00am 18.8 13.1 4.9 40 6.7 S 24 32 13 17 1018.0 1017.7 0.0
13/05:30am 19.0 13.4 5.5 41 6.6 S 24 28 13 15 1017.8 1017.5 0.0
13/05:00am 19.3 14.0 6.8 44 6.3 S 24 30 13 16 1017.5 1017.2 0.0
13/04:30am 19.9 15.2 7.9 46 6.2 S 22 28 12 15 1017.1 1016.8 0.0
13/04:00am 20.2 15.9 7.9 45 6.4 S 20 28 11 15 1016.8 1016.5 0.0
13/03:30am 20.6 15.9 7.9 44 6.6 S 22 26 12 14 1016.7 1016.4 0.0
13/03:00am 20.9 16.7 8.2 44 6.6 S 20 24 11 13 1016.8 1016.5 0.0
13/02:30am 21.5 16.6 8.4 43 6.9 S 24 32 13 17 1017.4 1017.1 0.0
13/02:00am 22.1 16.8 8.6 42 7.2 S 26 35 14 19 1017.6 1017.3 0.0
13/01:30am 22.6 16.3 9.0 42 7.3 S 32 37 17 20 1017.7 1017.4 0.0
13/01:00am 23.2 17.3 8.9 40 7.7 SSW 30 39 16 21 1017.8 1017.5 0.0
13/12:30am 23.8 18.1 8.2 37 8.3 S 28 35 15 19 1018.0 1017.7 0.0
13/12:00am 24.4 19.0 8.0 35 8.7 SSW 26 32 14 17 1018.6 1018.3 0.0
 
Date/Time
CDT
Temp
°C
App
Temp
°C
Dew
Point
°C
Rel
Hum
%
Delta-T
°C
Wind Press
QNH
hPa
Press
MSL
hPa
Rain since
9am
mm
Dir  Spd
km/h
Gust
km/h
Spd
kts
Gust
kts
12/11:30pm 24.8 20.0 7.4 33 9.2 SSW 22 28 12 15 1019.1 1018.8 0.0
12/11:00pm 25.0 18.7 7.6 33 9.2 S 30 35 16 19 1017.9 1017.6 0.0
12/10:30pm 25.7 19.9 6.3 29 10.1 SSW 26 33 14 18 1018.3 1018.0 0.0
12/10:00pm 25.6 20.9 5.2 27 10.4 WSW 19 22 10 12 1018.7 1018.4 0.0
12/09:57pm 25.6 20.9 5.2 27 10.4 SW 19 30 10 16 1018.8 1018.5 0.0
12/09:30pm 26.1 19.3 5.1 26 10.7 S 30 35 16 19 1016.8 1016.5 0.0
12/09:00pm 26.6 20.9 5.0 25 11.0 SSW 24 32 13 17 1017.0 1016.7 0.0
12/08:30pm 26.9 20.8 4.6 24 11.3 SW 26 32 14 17 1017.4 1017.1 0.0
12/08:27pm 27.0 21.3 4.7 24 11.4 WSW 24 32 13 17 1017.5 1017.2 0.0
12/08:00pm 26.9 23.5 4.0 23 11.5 SW 11 13 6 7 1017.0 1016.7 0.0
12/07:30pm 27.1 23.0 4.2 23 11.5 S 15 20 8 11 1016.8 1016.5 0.0
12/07:00pm 27.3 21.0 3.7 22 11.8 SSW 26 33 14 18 1017.2 1016.9 0.0
12/06:30pm 27.2 20.5 3.7 22 11.8 SSW 28 33 15 18 1016.9 1016.6 0.0
12/06:00pm 27.6 20.2 4.0 22 11.9 SSW 32 39 17 21 1016.7 1016.4 0.0
12/05:30pm 28.4 21.6 3.3 20 12.6 SSW 28 35 15 19 1016.3 1016.0 0.0
12/05:00pm 28.4 21.0 4.0 21 12.4 S 32 39 17 21 1016.1 1015.8 0.0
12/04:30pm 29.5 22.8 3.5 19 13.2 SSW 28 33 15 18 1016.2 1015.9 0.0
12/04:00pm 30.0 23.3 3.9 19 13.4 SSW 28 39 15 21 1016.5 1016.2 0.0
12/03:30pm 28.9 21.8 3.7 20 12.7 S 30 37 16 20 1016.4 1016.1 0.0
12/03:00pm 28.0 20.2 5.0 23 11.8 SSW 35 46 19 25 1016.9 1016.6 0.0
12/02:30pm 30.0 23.3 3.9 19 13.3 SSW 28 39 15 21 1016.5 1016.2 0.0
12/02:00pm 27.8 20.4 4.8 23 11.8 SSW 33 41 18 22 1017.5 1017.2 0.0
12/01:30pm 28.2 22.3 3.8 21 12.3 S 24 32 13 17 1017.1 1016.8 0.0
12/01:00pm 28.0 21.3 3.7 21 12.2 S 28 39 15 21 1017.1 1016.8 0.0
12/12:30pm 27.6 21.1 4.6 23 11.7 S 28 35 15 19 1017.9 1017.6 0.0
12/12:00pm 27.0 20.5 4.7 24 11.3 SSE 28 33 15 18 1017.5 1017.2 0.0
12/11:30am 27.0 21.3 4.7 24 11.3 SSE 24 32 13 17 1017.3 1017.0 0.0
12/11:00am 27.2 21.8 4.3 23 11.6 S 22 28 12 15 1017.9 1017.6 0.0
12/10:30am 27.1 21.8 4.8 24 11.4 S 22 30 12 16 1018.0 1017.7 0.0
12/10:00am 27.7 21.6 4.7 23 11.8 S 26 33 14 18 1018.0 1017.7 0.0
12/09:30am 27.9 21.6 5.5 24 11.6 S 28 35 15 19 1017.6 1017.3 0.0
12/09:00am 26.4 19.3 5.4 26 10.8 S 32 39 17 21 1016.8 1016.5 0.0
12/08:30am 25.5 18.4 6.2 29 10.0 SSE 33 43 18 23 1015.8 1015.5 0.0
12/08:00am 24.1 17.3 6.8 33 9.0 SSE 32 37 17 20 1015.2 1014.9 0.0
12/07:30am 22.9 16.5 7.1 36 8.2 S 30 35 16 19 1014.9 1014.6 0.0
12/07:00am 21.8 17.1 7.6 40 7.4 S 22 30 12 16 1014.8 1014.5 0.0
12/06:30am 21.3 15.7 8.6 44 6.7 S 28 33 15 18 1014.3 1014.0 0.0
12/06:00am 21.3 16.7 9.5 47 6.3 S 24 28 13 15 1013.9 1013.6 0.0
12/05:30am 21.6 16.7 9.8 47 6.4 S 26 33 14 18 1013.4 1013.1 0.0
12/05:00am 22.1 17.6 9.9 46 6.6 S 24 32 13 17 1013.0 1012.7 0.0
12/04:30am 22.7 17.3 9.5 43 7.1 S 28 32 15 17 1013.0 1012.7 0.0
12/04:00am 23.2 18.1 9.2 41 7.6 S 26 33 14 18 1012.9 1012.6 0.0
12/03:30am 23.3 18.3 9.7 42 7.4 S 26 33 14 18 1012.9 1012.6 0.0
12/03:00am 23.7 18.6 9.3 40 7.8 S 26 35 14 19 1013.0 1012.7 0.0
12/02:30am 24.2 18.0 9.4 39 8.1 S 32 39 17 21 1013.3 1013.0 0.0
12/02:00am 24.9 18.7 9.2 37 8.5 S 32 39 17 21 1013.6 1013.3 0.0
12/01:30am 25.5 19.0 8.9 35 9.0 S 33 41 18 22 1013.8 1013.5 0.0
12/01:00am 26.2 19.7 8.2 32 9.7 S 32 43 17 23 1013.8 1013.5 0.0
12/12:30am 27.0 20.2 6.9 28 10.6 S 32 41 17 22 1014.1 1013.8 0.0
12/12:00am 27.8 19.9 6.0 25 11.4 S 37 46 20 25 1014.3 1014.0 0.0
 
Date/Time
CDT
Temp
°C
App
Temp
°C
Dew
Point
°C
Rel
Hum
%
Delta-T
°C
Wind Press
QNH
hPa
Press
MSL
hPa
Rain since
9am
mm
Dir  Spd
km/h
Gust
km/h
Spd
kts
Gust
kts
11/11:30pm 28.7 20.6 1.3 17 13.3 S 33 41 18 22 1014.3 1014.0 0.0
11/11:00pm 29.9 21.2 2.2 17 13.8 S 37 48 20 26 1014.2 1013.9 0.0
11/10:30pm 31.7 23.0 -3.6 10 16.1 S 33 46 18 25 1013.9 1013.6 0.0
11/10:00pm 32.5 25.4 -4.4 9 16.7 S 24 30 13 16 1013.7 1013.4 0.0
11/09:30pm 33.2 26.2 -3.9 9 17.0 S 24 28 13 15 1013.4 1013.1 0.0
11/09:00pm 34.0 26.8 -1.9 10 17.1 S 26 32 14 17 1013.0 1012.7 0.0
11/08:30pm 34.5 26.6 -1.5 10 17.3 SSW 30 35 16 19 1012.9 1012.6 0.0
11/08:00pm 35.5 27.5 -2.2 9 18.1 SSW 30 35 16 19 1012.4 1012.1 0.0
11/07:30pm 36.3 29.0 -3.2 8 18.7 SSW 26 35 14 19 1012.1 1011.8 0.0
11/07:00pm 37.5 30.3 -2.3 8 19.3 SSW 26 32 14 17 1011.8 1011.5 0.0
11/06:30pm 38.3 31.1 -1.7 8 19.7 SSW 26 37 14 20 1011.6 1011.3 0.0
11/06:00pm 38.6 31.7 0.1 9 19.5 SSW 26 35 14 19 1011.3 1011.0 0.0
11/05:30pm 38.3 31.5 -1.7 8 19.7 S 24 35 13 19 1011.4 1011.1 0.0
11/05:00pm 38.6 32.2 -1.5 8 19.8 SSW 22 39 12 21 1011.5 1011.2 0.0
11/04:30pm 38.7 32.9 0.2 9 19.6 SSW 20 32 11 17 1011.8 1011.5 0.0
11/04:00pm 39.9 33.3 -0.5 8 20.4 WSW 24 35 13 19 1012.0 1011.7 0.0
11/03:30pm 39.6 33.7 -0.8 8 20.3 WSW 20 33 11 18 1012.2 1011.9 0.0
11/03:00pm 39.2 33.5 -1.1 8 20.1 WSW 19 30 10 16 1012.5 1012.2 0.0
11/02:30pm 39.0 33.2 -1.2 8 20.0 WSW 19 28 10 15 1012.7 1012.4 0.0
11/02:00pm 38.7 34.3 0.2 9 19.5 S 13 20 7 11 1013.1 1012.8 0.0
11/01:30pm 37.4 33.4 0.7 10 18.6 S 11 30 6 16 1013.6 1013.3 0.0
11/01:00pm 36.4 32.9 1.2 11 17.9 S 9 19 5 10 1014.0 1013.7 0.0
11/12:30pm 36.2 32.9 2.3 12 17.5 N 9 15 5 8 1014.2 1013.9 0.0
11/12:00pm 35.1 32.6 3.6 14 16.5 WSW 6 13 3 7 1014.5 1014.2 0.0
11/11:30am 34.0 30.9 3.7 15 15.8 ESE 9 15 5 8 1014.6 1014.3 0.0
11/11:00am 33.0 29.6 3.9 16 15.2 SE 11 17 6 9 1014.6 1014.3 0.0
11/10:30am 31.9 28.2 4.6 18 14.3 SSE 13 20 7 11 1014.7 1014.4 0.0
11/10:00am 30.3 25.9 4.9 20 13.2 SSE 17 24 9 13 1014.6 1014.3 0.0
11/09:30am 29.7 25.1 6.4 23 12.4 SSE 20 28 11 15 1014.5 1014.2 0.0
11/09:00am 28.4 23.5 7.1 26 11.4 SSE 22 33 12 18 1014.4 1014.1 0.0
11/08:30am 27.3 22.5 8.7 31 10.2 S 24 30 13 16 1014.2 1013.9 0.0
11/08:00am 25.3 20.2 9.2 36 8.8 S 26 32 14 17 1013.9 1013.6 0.0
11/07:30am 24.1 20.0 10.0 41 7.8 S 22 26 12 14 1013.7 1013.4 0.0
11/07:00am 22.6 19.2 10.7 47 6.6 S 19 24 10 13 1013.4 1013.1 0.0
11/06:30am 22.0 19.0 10.5 48 6.3 SSE 17 22 9 12 1013.2 1012.9 0.0
11/06:00am 22.4 18.8 10.5 47 6.5 S 20 24 11 13 1012.6 1012.3 0.0
11/05:30am 23.0 19.3 10.1 44 7.1 SSE 20 24 11 13 1012.6 1012.3 0.0
11/05:00am 23.5 19.5 9.1 40 7.8 SSE 20 26 11 14 1012.6 1012.3 0.0
11/04:30am 23.9 19.8 8.7 38 8.2 SSE 20 26 11 14 1012.2 1011.9 0.0
11/04:00am 24.7 20.4 7.8 34 9.0 SSE 20 24 11 13 1012.2 1011.9 0.0
11/03:30am 25.4 20.5 8.4 34 9.2 S 24 28 13 15 1012.1 1011.8 0.0
11/03:00am 25.4 20.2 8.8 35 9.0 S 26 30 14 16 1012.5 1012.2 0.0
11/02:30am 25.7 20.2 9.1 35 9.1 S 28 39 15 21 1012.7 1012.4 0.0
11/02:00am 26.0 19.5 8.9 34 9.3 S 33 39 18 21 1013.0 1012.7 0.0
11/01:30am 26.7 18.3 5.6 26 10.9 S 39 44 21 24 1013.0 1012.7 0.0
11/01:00am 27.1 20.4 5.4 25 11.2 SSE 30 37 16 20 1013.8 1013.5 0.0
11/12:30am 28.0 20.0 7.3 27 11.1 S 39 50 21 27 1014.0 1013.7 0.0
11/12:00am 29.3 23.0 7.2 25 11.9 SSE 30 39 16 21 1014.1 1013.8 0.0
 
Date/Time
CDT
Temp
°C
App
Temp
°C
Dew
Point
°C
Rel
Hum
%
Delta-T
°C
Wind Press
QNH
hPa
Press
MSL
hPa
Rain since
9am
mm
Dir  Spd
km/h
Gust
km/h
Spd
kts
Gust
kts
10/11:30pm 30.5 25.9 6.4 22 12.9 S 20 30 11 16 1013.7 1013.4 0.0
10/11:00pm 31.7 26.8 6.7 21 13.5 S 22 30 12 16 1013.7 1013.4 0.0
10/10:30pm 32.6 27.7 6.7 20 14.1 S 22 26 12 14 1013.5 1013.2 0.0
10/10:00pm 33.3 27.6 6.6 19 14.5 S 26 32 14 17 1013.3 1013.0 0.0
10/09:30pm 34.0 27.8 6.3 18 15.1 S 28 37 15 20 1013.0 1012.7 0.0
10/09:00pm 34.9 28.7 6.2 17 15.7 SSW 28 35 15 19 1012.7 1012.4 0.0

Other formats

Comma delimited format used in spreadsheet applications
http://www.bom.gov.au/fwo/IDS60801/IDS60801.95480.axf

JavaScript Object Notation format (JSON) in row-major order
http://www.bom.gov.au/fwo/IDS60801/IDS60801.95480.json

Data quality

Most of these data are generated automatically and are frequently updated. Quality checks on data are not normally performed. It is possible for incorrect values to appear. Refer to information at About Latest Weather Observations and please check the disclaimer before using these data.